Jacumba, CA

11:51 AM PST en Diciembre 02, 2016 (GMT -0800)
De Anza Springs Resort | | Change Station
Aviso en curso: Wind Advisory

Alt 2753 ft 32.65 °N, 116.18 °W | Updated 5 seconds ago

Partly Cloudy
Parcialmente nublado
55.0 ° F
Sensación térmica 55.0 ° F
N
4.0
Viento Variable Viento desde Este

Hoy
Alta -- | Baja -- ° F
--% Posibilidad de precipitaciones
Ayer
Alta -- | Baja -- ° F
Precip. -- pul
Presión 29.88 pul
Visibilidad -9999.0 Millas
Nubes
Punto de rocío 14 ° F
Humedad 20%
Precipitaciones 0.00 pul
Espesor de la nieve No disponible.
6:30 AM 4:38 PM
Creciente, 10% visible
METAR KCZZ 021852Z AUTO 05013G20KT 14/M06 A2992 RMK AO1 SLP118 T01391061
Presión 29.88 pul
Visibilidad -9999.0 Millas
Nubes
Punto de rocío 14 ° F
Humedad 20%
Precipitaciones 0.00 pul
Espesor de la nieve No disponible.
6:30 AM 4:38 PM
Creciente, 10% visible
METAR KCZZ 021852Z AUTO 05013G20KT 14/M06 A2992 RMK AO1 SLP118 T01391061

10-Day Weather Forecast

Almanac

Astronomía

Dec. 02, 2016 Salida Puesta
Hora real
Crepúsculo civil
Crepúsculo náutico
Crepúsculo astronómico
Luna
Horas de luz
Horas de luz
Tomorrow will be .
, % of the Moon is Illuminated

Extremos de hoy

Máximos del estado Bajos del estado

Community

WunderPhotos

Upload Photos

1,955,344 ¡fotos cargadas!

WunderBlog® & News

Nearby

Calidad del aire

  Calidad del aire Índice AQ Contaminante
Not available.

Grosos de nieve

Estación Profundido Altura

Actividad de terremotos

Ciudad Distance Mag. Tiempo y dato
Magnitud mínima muestra es 2,5.

Temperaturas de aguas costeras

Lugar Temperatura

Stations

Estaciones meteorológicas cercanas

Ubicación de la estación Temp. Vientos helados Punto de rocío Humedad Viento Precip. Alt Actualizado Tipo
                   

Watches & Warnings

Wind Advisory
Issued: 4:54 AM PST Dec. 2, 2016 – National Weather Service

... Wind Advisory remains in effect from 9 am this morning to 2 PM
PST Saturday...

* winds... north to northeast 20 to 30 mph with gusts t0 50
mph... strongest along the Little San Bernardino Mountains.

* Timing... mid-morning today through Saturday afternoon.

* Location... Coachella Valley including the San Gorgonio
Pass... and the San Diego County deserts.

* Impacts... hazardous driving conditions for high profile
vehicles. Blowing dust could reduce visibility at times.

* Outlook... lighter winds Saturday night and Sunday.

Precautionary/preparedness actions...

A Wind Advisory means that winds of 35 mph are expected. Winds
this strong can make driving difficult... especially for high
profile vehicles. Use extra caution.